Time;durP1;ratioP1;P1;durP2;ratioP2;P2;SDS_P1;SDS_P2;PMS_P1;PMS_P2;Temp;Humidity;BMP_temperature;BMP_pressure;BME280_temperature;BME280_humidity;BME280_pressure;Samples;Min_cycle;Max_cycle;Signal;HPM_P1;HPM_P2
2020/12/24 00:02:14;;;;;;;;;;;23.30;74.90;;;;;;5128127;27;19968;-87
2020/12/24 00:04:41;;;;;;;;;;;23.30;76.10;;;;;;5116091;28;20443;-86
2020/12/24 00:07:07;;;;;;;;;;;23.40;75.80;;;;;;5095276;28;19912;-83
2020/12/24 00:09:34;;;;;;;;;;;23.30;75.50;;;;;;5117026;28;19912;-84
2020/12/24 00:12:01;;;;;;;;;;;23.40;75.30;;;;;;5136125;28;19919;-85
2020/12/24 00:14:27;;;;;;;;;;;23.50;75.00;;;;;;5104819;28;19907;-85
2020/12/24 00:16:55;;;;;;;;;;;23.50;74.30;;;;;;5115777;28;19958;-85
2020/12/24 00:19:22;;;;;;;;;;;23.50;74.60;;;;;;5117247;28;19915;-84
2020/12/24 00:21:49;;;;;;;;;;;23.50;75.70;;;;;;5116957;28;19922;-86
2020/12/24 00:24:15;;;;;;;;;;;23.70;74.30;;;;;;5117626;28;20282;-86
2020/12/24 00:26:43;;;;;;;;;;;23.70;73.60;;;;;;5117045;27;21007;-84
2020/12/24 00:29:10;;;;;;;;;;;23.90;73.40;;;;;;5131015;28;19911;-82
2020/12/24 00:31:39;;;;;;;;;;;24.00;72.30;;;;;;5125811;28;19923;-86
2020/12/24 00:34:06;;;;;;;;;;;24.10;71.80;;;;;;5113639;28;19991;-82
2020/12/24 00:36:33;;;;;;;;;;;24.20;72.20;;;;;;5112703;28;19916;-84
2020/12/24 00:39:00;;;;;;;;;;;24.60;71.00;;;;;;5113631;28;20358;-85
2020/12/24 00:41:27;;;;;;;;;;;24.70;69.60;;;;;;5111812;28;19930;-84
2020/12/24 00:43:53;;;;;;;;;;;24.90;70.30;;;;;;5114209;28;19951;-81
2020/12/24 00:46:20;;;;;;;;;;;25.30;68.20;;;;;;5112714;28;20014;-84
2020/12/24 00:48:48;;;;;;;;;;;25.60;66.60;;;;;;5112518;28;19916;-82
2020/12/24 00:51:15;;;;;;;;;;;26.00;65.70;;;;;;5111167;28;20394;-82
2020/12/24 00:53:42;;;;;;;;;;;26.10;65.00;;;;;;5112758;28;19924;-84
2020/12/24 00:56:10;;;;;;;;;;;26.50;63.60;;;;;;5111775;28;19908;-81
2020/12/24 00:58:37;;;;;;;;;;;26.70;63.40;;;;;;5113149;27;19968;-82
2020/12/24 01:01:04;;;;;;;;;;;27.00;62.70;;;;;;5113063;28;19923;-82
2020/12/24 01:03:30;;;;;;;;;;;27.30;64.30;;;;;;5112008;28;19985;-76
2020/12/24 01:05:57;;;;;;;;;;;27.50;60.80;;;;;;5114598;27;19924;-78
2020/12/24 01:08:24;;;;;;;;;;;27.20;63.10;;;;;;5112330;28;19912;-81
2020/12/24 01:10:51;;;;;;;;;;;27.00;65.10;;;;;;5112078;28;20080;-78
2020/12/24 01:13:17;;;;;;;;;;;26.60;65.60;;;;;;5112255;28;19912;-78
2020/12/24 01:15:44;;;;;;;;;;;26.20;68.00;;;;;;5112220;28;19912;-78
2020/12/24 01:18:11;;;;;;;;;;;26.30;67.90;;;;;;5112082;28;19927;-79
2020/12/24 01:20:37;;;;;;;;;;;26.10;66.90;;;;;;5113340;27;20290;-79
2020/12/24 01:23:05;;;;;;;;;;;26.20;66.50;;;;;;5111445;28;19912;-80
2020/12/24 01:25:32;;;;;;;;;;;26.40;67.10;;;;;;5112151;27;19922;-79
2020/12/24 01:27:59;;;;;;;;;;;26.70;66.30;;;;;;5112637;28;19915;-79
2020/12/24 01:30:26;;;;;;;;;;;26.60;65.60;;;;;;5111617;28;20504;-80
2020/12/24 01:32:53;;;;;;;;;;;27.00;66.70;;;;;;5112446;28;20378;-80
2020/12/24 01:35:20;;;;;;;;;;;27.20;64.70;;;;;;5114208;28;19911;-80
2020/12/24 01:37:47;;;;;;;;;;;27.70;63.60;;;;;;5097483;28;19925;-80
2020/12/24 01:40:13;;;;;;;;;;;27.40;64.30;;;;;;5118477;27;19919;-80
2020/12/24 01:42:40;;;;;;;;;;;27.00;65.10;;;;;;5112993;28;19944;-78
2020/12/24 01:45:08;;;;;;;;;;;27.10;65.40;;;;;;5093960;28;20346;-78
2020/12/24 01:47:35;;;;;;;;;;;26.60;66.70;;;;;;5095303;28;19908;-78
2020/12/24 01:50:02;;;;;;;;;;;26.30;67.70;;;;;;5112924;28;19919;-79
2020/12/24 01:52:29;;;;;;;;;;;26.00;68.30;;;;;;5112770;28;19916;-77
2020/12/24 01:54:56;;;;;;;;;;;25.80;69.80;;;;;;5112295;28;19919;-77
2020/12/24 01:57:23;;;;;;;;;;;25.80;69.40;;;;;;5113758;28;20255;-77
2020/12/24 01:59:49;;;;;;;;;;;25.70;69.80;;;;;;5113266;28;19926;-76
2020/12/24 02:02:16;;;;;;;;;;;25.60;70.60;;;;;;5095278;28;19911;-77
2020/12/24 02:04:43;;;;;;;;;;;25.30;70.60;;;;;;5118404;28;19912;-76
2020/12/24 02:07:09;;;;;;;;;;;25.10;72.60;;;;;;5122721;27;20368;-76
2020/12/24 02:09:36;;;;;;;;;;;25.10;71.90;;;;;;5122516;27;20366;-76
2020/12/24 02:12:03;;;;;;;;;;;25.20;73.00;;;;;;5123504;28;20309;-76
2020/12/24 02:14:30;;;;;;;;;;;25.00;72.70;;;;;;5133017;27;19907;-76
2020/12/24 02:16:57;;;;;;;;;;;24.90;72.70;;;;;;5123554;27;20416;-78
2020/12/24 02:19:23;;;;;;;;;;;25.00;74.00;;;;;;5118635;28;20317;-77
2020/12/24 02:21:50;;;;;;;;;;;25.10;73.20;;;;;;5113746;28;20358;-78
2020/12/24 02:24:16;;;;;;;;;;;25.10;73.30;;;;;;5124398;28;19922;-77
2020/12/24 02:26:43;;;;;;;;;;;25.10;72.60;;;;;;5124607;28;19918;-76
2020/12/24 02:29:10;;;;;;;;;;;25.00;73.10;;;;;;5128338;27;19946;-77
2020/12/24 02:31:36;;;;;;;;;;;25.00;73.30;;;;;;5121381;27;19923;-75
2020/12/24 02:34:03;;;;;;;;;;;25.00;73.40;;;;;;5116262;28;19919;-76
2020/12/24 02:36:30;;;;;;;;;;;24.90;73.40;;;;;;5116409;27;19998;-78
2020/12/24 02:38:56;;;;;;;;;;;25.00;72.80;;;;;;5126916;27;20003;-78
2020/12/24 02:41:23;;;;;;;;;;;24.90;73.60;;;;;;5126377;27;19919;-77
2020/12/24 02:43:50;;;;;;;;;;;24.90;74.20;;;;;;5123296;27;19924;-77
2020/12/24 02:46:17;;;;;;;;;;;24.70;74.00;;;;;;5122952;27;19911;-78
2020/12/24 02:48:44;;;;;;;;;;;24.70;75.30;;;;;;5121672;27;20468;-77
2020/12/24 02:51:10;;;;;;;;;;;24.60;73.50;;;;;;5120164;27;19912;-76
2020/12/24 02:53:37;;;;;;;;;;;24.70;74.50;;;;;;5115747;28;20294;-77
2020/12/24 02:56:04;;;;;;;;;;;24.90;73.50;;;;;;5114322;28;19953;-78
2020/12/24 02:58:30;;;;;;;;;;;24.80;73.90;;;;;;5120177;27;20019;-77
2020/12/24 03:00:57;;;;;;;;;;;24.70;74.90;;;;;;5127716;27;19918;-77
2020/12/24 03:03:27;;;;;;;;;;;24.90;75.20;;;;;;5116294;27;19919;-78
2020/12/24 03:05:54;;;;;;;;;;;24.90;74.30;;;;;;5115555;27;19919;-77
2020/12/24 03:08:21;;;;;;;;;;;24.90;74.20;;;;;;5105856;28;19965;-75
2020/12/24 03:10:47;;;;;;;;;;;24.80;74.60;;;;;;5114627;28;20258;-77
2020/12/24 03:13:14;;;;;;;;;;;24.60;74.80;;;;;;5115377;28;19915;-77
2020/12/24 03:15:41;;;;;;;;;;;24.60;74.80;;;;;;5114118;28;19915;-80
2020/12/24 03:18:07;;;;;;;;;;;24.60;75.50;;;;;;5115178;28;19916;-81
2020/12/24 03:20:34;;;;;;;;;;;24.60;75.20;;;;;;5114296;28;19911;-80
2020/12/24 03:23:01;;;;;;;;;;;24.50;75.50;;;;;;5113326;28;19919;-80
2020/12/24 03:25:27;;;;;;;;;;;24.50;75.40;;;;;;5113250;28;20049;-82
2020/12/24 03:27:54;;;;;;;;;;;24.40;76.40;;;;;;5113283;28;19912;-80
2020/12/24 03:30:23;;;;;;;;;;;24.50;75.40;;;;;;5112974;28;19916;-79
2020/12/24 03:32:50;;;;;;;;;;;24.60;75.50;;;;;;5112204;28;19911;-79
2020/12/24 03:35:17;;;;;;;;;;;24.60;76.00;;;;;;5113042;28;19907;-79
2020/12/24 03:37:43;;;;;;;;;;;24.70;75.70;;;;;;5113961;28;20034;-79
2020/12/24 03:40:10;;;;;;;;;;;24.80;74.20;;;;;;5114910;28;19957;-79
2020/12/24 03:42:37;;;;;;;;;;;24.90;74.10;;;;;;5114128;28;19963;-79
2020/12/24 03:45:03;;;;;;;;;;;24.80;74.60;;;;;;5096013;28;19919;-79
2020/12/24 03:47:30;;;;;;;;;;;24.80;74.70;;;;;;5113335;28;19922;-79
2020/12/24 03:49:56;;;;;;;;;;;24.80;73.50;;;;;;5114380;28;19912;-79
2020/12/24 03:52:23;;;;;;;;;;;24.80;75.00;;;;;;5113845;28;19918;-79
2020/12/24 03:54:50;;;;;;;;;;;25.00;74.30;;;;;;5114894;28;20022;-79
2020/12/24 03:57:16;;;;;;;;;;;25.10;73.10;;;;;;5113326;28;19920;-79
2020/12/24 03:59:43;;;;;;;;;;;24.90;73.80;;;;;;5114815;28;20508;-79
2020/12/24 04:02:10;;;;;;;;;;;24.80;74.60;;;;;;5114800;28;20350;-79
2020/12/24 04:04:36;;;;;;;;;;;24.70;74.60;;;;;;5113822;28;19927;-79
2020/12/24 04:07:04;;;;;;;;;;;24.50;75.00;;;;;;5113209;28;19926;-82
2020/12/24 04:09:31;;;;;;;;;;;24.60;75.20;;;;;;5114373;28;19920;-77
2020/12/24 04:11:57;;;;;;;;;;;24.70;74.00;;;;;;5096270;28;20286;-77
2020/12/24 04:14:24;;;;;;;;;;;24.80;74.30;;;;;;5096537;28;19930;-80
2020/12/24 04:16:51;;;;;;;;;;;25.00;74.90;;;;;;5113942;28;19923;-77
2020/12/24 04:19:17;;;;;;;;;;;25.00;74.10;;;;;;5113752;28;20282;-76
2020/12/24 04:21:44;;;;;;;;;;;24.80;73.80;;;;;;5113414;28;19956;-78
2020/12/24 04:24:11;;;;;;;;;;;24.80;73.00;;;;;;5112789;28;20043;-78
2020/12/24 04:26:37;;;;;;;;;;;24.70;74.70;;;;;;5113245;28;19911;-77
2020/12/24 04:29:04;;;;;;;;;;;24.80;74.20;;;;;;5113797;28;19915;-76
2020/12/24 04:31:31;;;;;;;;;;;24.80;74.10;;;;;;5115504;28;19916;-76
2020/12/24 04:33:57;;;;;;;;;;;24.90;73.60;;;;;;5114538;28;19912;-76
2020/12/24 04:36:24;;;;;;;;;;;24.90;72.80;;;;;;5113524;28;19951;-77
2020/12/24 04:38:50;;;;;;;;;;;24.50;73.30;;;;;;5112937;28;19920;-78
2020/12/24 04:41:17;;;;;;;;;;;24.40;74.30;;;;;;5113000;28;19998;-78
2020/12/24 04:43:44;;;;;;;;;;;24.40;74.80;;;;;;5113220;27;19918;-77
2020/12/24 04:46:13;;;;;;;;;;;24.40;75.00;;;;;;5113247;28;20366;-78
2020/12/24 04:48:40;;;;;;;;;;;24.60;74.30;;;;;;5094570;28;20338;-77
2020/12/24 04:51:09;;;;;;;;;;;24.70;73.80;;;;;;5111778;28;19911;-77
2020/12/24 04:53:37;;;;;;;;;;;24.80;73.60;;;;;;5097703;28;19916;-78
2020/12/24 04:56:04;;;;;;;;;;;24.70;73.80;;;;;;5109459;28;19919;-79
2020/12/24 04:58:31;;;;;;;;;;;24.70;74.30;;;;;;5113205;28;19927;-80
2020/12/24 05:00:58;;;;;;;;;;;24.70;74.30;;;;;;5113599;28;19914;-79
2020/12/24 05:03:24;;;;;;;;;;;24.70;74.20;;;;;;5113471;28;19908;-82
2020/12/24 05:05:52;;;;;;;;;;;24.80;74.30;;;;;;5121727;27;19927;-79
2020/12/24 05:08:18;;;;;;;;;;;24.70;74.30;;;;;;5112977;28;19978;-78
2020/12/24 05:11:01;;;;;;;;;;;24.80;73.90;;;;;;5113671;28;19919;-80
2020/12/24 05:13:28;;;;;;;;;;;24.70;73.90;;;;;;5128187;27;20354;-83
2020/12/24 05:15:54;;;;;;;;;;;24.70;74.30;;;;;;5131662;27;19912;-77
2020/12/24 05:18:24;;;;;;;;;;;24.60;74.60;;;;;;5136338;27;19919;-77
2020/12/24 05:20:51;;;;;;;;;;;24.60;75.30;;;;;;5130160;27;19923;-76
2020/12/24 05:23:21;;;;;;;;;;;24.70;75.50;;;;;;5111935;28;19907;-75
2020/12/24 05:25:48;;;;;;;;;;;24.70;74.70;;;;;;5114636;28;19908;-76
2020/12/24 05:28:25;;;;;;;;;;;24.70;74.10;;;;;;5124711;27;19937;-77
2020/12/24 05:30:52;;;;;;;;;;;24.60;74.10;;;;;;5125348;27;19967;-79
2020/12/24 05:33:32;;;;;;;;;;;24.80;74.10;;;;;;5127189;27;19933;-77
2020/12/24 05:36:17;;;;;;;;;;;24.60;74.30;;;;;;5113251;27;19919;-75
2020/12/24 05:38:44;;;;;;;;;;;24.50;74.70;;;;;;5100494;28;20403;-77
2020/12/24 05:41:26;;;;;;;;;;;24.50;74.80;;;;;;5120726;27;19916;-76
2020/12/24 05:43:57;;;;;;;;;;;24.40;75.30;;;;;;5128743;27;20022;-75
2020/12/24 05:46:24;;;;;;;;;;;24.50;74.30;;;;;;5111163;28;19914;-75
2020/12/24 05:48:51;;;;;;;;;;;24.50;74.90;;;;;;5113684;27;19935;-77
2020/12/24 05:51:18;;;;;;;;;;;24.50;75.60;;;;;;5120055;28;19912;-77
2020/12/24 05:53:46;;;;;;;;;;;24.50;75.70;;;;;;5123171;27;19919;-78
2020/12/24 05:56:22;;;;;;;;;;;24.50;75.90;;;;;;5109618;28;19908;-79
2020/12/24 05:58:53;;;;;;;;;;;24.50;75.30;;;;;;5107483;28;19924;-77
2020/12/24 06:01:20;;;;;;;;;;;24.50;75.40;;;;;;5100775;28;19959;-77
2020/12/24 06:03:55;;;;;;;;;;;24.40;75.70;;;;;;5116773;27;20508;-75
2020/12/24 06:06:37;;;;;;;;;;;24.40;76.30;;;;;;5123161;27;19972;-79
2020/12/24 06:09:10;;;;;;;;;;;24.40;76.70;;;;;;5130996;27;20025;-77
2020/12/24 06:11:43;;;;;;;;;;;24.50;77.50;;;;;;5126620;27;19916;-82
2020/12/24 06:14:13;;;;;;;;;;;24.60;77.20;;;;;;5124373;27;19912;-81
2020/12/24 06:16:44;;;;;;;;;;;24.50;77.30;;;;;;5119176;27;19919;-80
2020/12/24 06:19:13;;;;;;;;;;;24.40;78.00;;;;;;5114860;28;20379;-81
2020/12/24 06:21:42;;;;;;;;;;;24.40;78.40;;;;;;5124887;27;20353;-80
2020/12/24 06:24:10;;;;;;;;;;;24.40;79.30;;;;;;5133835;27;19907;-80
2020/12/24 06:26:39;;;;;;;;;;;24.30;79.10;;;;;;5134805;27;19911;-78
2020/12/24 06:29:06;;;;;;;;;;;24.30;79.50;;;;;;5135362;27;20373;-81
2020/12/24 06:31:34;;;;;;;;;;;24.40;79.00;;;;;;5118648;27;20006;-80
2020/12/24 06:34:24;;;;;;;;;;;24.30;79.00;;;;;;5115226;28;19915;-81
2020/12/24 06:36:51;;;;;;;;;;;24.30;78.90;;;;;;5107693;28;20377;-79
2020/12/24 06:39:35;;;;;;;;;;;24.20;79.80;;;;;;5114286;28;20357;-82
2020/12/24 06:42:02;;;;;;;;;;;24.20;79.40;;;;;;5114626;28;20390;-82
2020/12/24 06:44:48;;;;;;;;;;;24.00;80.30;;;;;;5114905;28;19920;-79
2020/12/24 06:47:17;;;;;;;;;;;24.00;79.60;;;;;;5114651;28;19908;-79
2020/12/24 06:49:44;;;;;;;;;;;23.90;81.00;;;;;;5108150;27;20003;-82
2020/12/24 06:52:11;;;;;;;;;;;24.00;80.90;;;;;;5093570;28;19912;-80
2020/12/24 06:54:38;;;;;;;;;;;24.00;80.80;;;;;;5094234;28;19965;-78
2020/12/24 06:57:20;;;;;;;;;;;24.00;80.90;;;;;;5094116;28;20297;-83
2020/12/24 06:59:48;;;;;;;;;;;24.00;81.00;;;;;;5095982;28;19916;-82
2020/12/24 07:02:24;;;;;;;;;;;23.80;81.30;;;;;;5113961;28;19911;-83
2020/12/24 07:04:51;;;;;;;;;;;23.70;82.10;;;;;;5114442;28;19916;-80
2020/12/24 07:07:38;;;;;;;;;;;23.70;82.10;;;;;;5113762;28;20019;-79
2020/12/24 07:10:04;;;;;;;;;;;23.70;81.90;;;;;;5099780;28;19915;-79
2020/12/24 07:12:32;;;;;;;;;;;23.60;82.20;;;;;;5113968;28;19951;-79
2020/12/24 07:15:18;;;;;;;;;;;23.60;82.20;;;;;;5113680;28;20546;-78
2020/12/24 07:17:45;;;;;;;;;;;23.50;83.00;;;;;;5113853;28;19924;-78
2020/12/24 07:20:16;;;;;;;;;;;23.50;83.60;;;;;;5114348;28;20426;-79
2020/12/24 07:22:43;;;;;;;;;;;23.50;83.20;;;;;;5113358;28;19908;-78
2020/12/24 07:25:10;;;;;;;;;;;23.50;83.40;;;;;;5113874;28;19908;-78
2020/12/24 07:27:47;;;;;;;;;;;23.40;83.50;;;;;;5119916;28;19947;-77
2020/12/24 07:30:14;;;;;;;;;;;23.30;84.20;;;;;;5122861;28;19939;-79
2020/12/24 07:32:41;;;;;;;;;;;23.30;84.50;;;;;;5113494;28;19908;-80
2020/12/24 07:35:11;;;;;;;;;;;23.30;85.20;;;;;;5113615;28;20289;-80
2020/12/24 07:37:44;;;;;;;;;;;23.20;85.40;;;;;;5115023;28;20361;-77
2020/12/24 07:40:11;;;;;;;;;;;23.20;85.20;;;;;;5114636;28;19953;-78
2020/12/24 07:42:37;;;;;;;;;;;23.20;85.60;;;;;;5115739;28;20281;-78
2020/12/24 07:45:04;;;;;;;;;;;23.10;85.70;;;;;;5109745;28;20267;-80
2020/12/24 07:47:31;;;;;;;;;;;23.10;85.90;;;;;;5113047;28;19912;-79
2020/12/24 07:49:57;;;;;;;;;;;23.00;86.50;;;;;;5094634;28;19911;-78
2020/12/24 07:52:24;;;;;;;;;;;23.10;86.20;;;;;;5113191;28;19958;-80
2020/12/24 07:54:51;;;;;;;;;;;22.90;86.70;;;;;;5112836;28;19919;-76
2020/12/24 07:57:23;;;;;;;;;;;22.90;87.00;;;;;;5112753;28;20366;-79
2020/12/24 07:59:59;;;;;;;;;;;22.90;87.10;;;;;;5112842;28;19969;-78
2020/12/24 08:02:26;;;;;;;;;;;22.90;87.00;;;;;;5113212;28;19915;-76
2020/12/24 08:04:55;;;;;;;;;;;22.80;89.80;;;;;;5119680;27;19916;-77
2020/12/24 08:07:22;;;;;;;;;;;22.60;90.00;;;;;;5135228;27;19962;-76
2020/12/24 08:09:49;;;;;;;;;;;22.60;90.40;;;;;;5135658;27;20018;-78
2020/12/24 08:12:24;;;;;;;;;;;22.60;90.40;;;;;;5135699;27;20377;-77
2020/12/24 08:14:51;;;;;;;;;;;22.60;90.30;;;;;;5135585;27;19908;-78
2020/12/24 08:17:36;;;;;;;;;;;22.60;90.20;;;;;;5135667;27;20010;-78
2020/12/24 08:20:10;;;;;;;;;;;22.60;90.20;;;;;;5135149;27;19998;-82
2020/12/24 08:22:57;;;;;;;;;;;22.60;90.30;;;;;;5135301;27;20316;-79
2020/12/24 08:25:24;;;;;;;;;;;22.50;90.30;;;;;;5116971;27;20022;-82
2020/12/24 08:27:50;;;;;;;;;;;22.50;90.40;;;;;;5134084;27;19912;-79
2020/12/24 08:30:17;;;;;;;;;;;22.60;90.00;;;;;;5135265;27;19907;-79
2020/12/24 08:32:46;;;;;;;;;;;22.60;90.00;;;;;;5135049;27;19957;-78
2020/12/24 08:35:14;;;;;;;;;;;22.60;90.10;;;;;;5132287;27;19915;-75
2020/12/24 08:37:40;;;;;;;;;;;22.60;90.50;;;;;;5134956;27;19911;-76
2020/12/24 08:40:26;;;;;;;;;;;22.50;90.60;;;;;;5116434;27;20384;-76
2020/12/24 08:42:58;;;;;;;;;;;22.40;90.90;;;;;;5134770;27;19908;-76
2020/12/24 08:45:25;;;;;;;;;;;22.40;91.10;;;;;;5114964;27;19918;-76
2020/12/24 08:47:51;;;;;;;;;;;22.30;91.20;;;;;;5134638;27;19928;-76
2020/12/24 08:50:31;;;;;;;;;;;22.30;91.10;;;;;;5125759;27;19912;-76
2020/12/24 08:52:59;;;;;;;;;;;22.20;91.30;;;;;;5135076;27;19911;-76
2020/12/24 08:55:29;;;;;;;;;;;22.20;91.30;;;;;;5115792;27;19963;-77
2020/12/24 08:57:55;;;;;;;;;;;22.30;91.10;;;;;;5114138;28;19923;-77
2020/12/24 09:00:23;;;;;;;;;;;22.30;91.20;;;;;;5115429;28;20369;-78
2020/12/24 09:02:50;;;;;;;;;;;22.20;91.50;;;;;;5120116;27;19915;-78
2020/12/24 09:05:25;;;;;;;;;;;22.20;91.70;;;;;;5141695;27;20064;-78
2020/12/24 09:07:52;;;;;;;;;;;22.20;91.80;;;;;;5128649;27;20341;-78
2020/12/24 09:10:26;;;;;;;;;;;22.20;91.90;;;;;;5132785;27;19915;-78
2020/12/24 09:12:57;;;;;;;;;;;22.20;91.80;;;;;;5133129;27;19934;-78
2020/12/24 09:15:25;;;;;;;;;;;22.00;92.10;;;;;;5136646;27;19911;-78
2020/12/24 09:17:53;;;;;;;;;;;22.00;92.20;;;;;;5144542;27;19927;-78
2020/12/24 09:20:22;;;;;;;;;;;22.00;92.30;;;;;;5133088;27;20013;-78
2020/12/24 09:22:50;;;;;;;;;;;22.00;92.50;;;;;;5130109;27;20281;-79
2020/12/24 09:25:29;;;;;;;;;;;22.00;92.60;;;;;;5132512;27;19915;-79
2020/12/24 09:27:55;;;;;;;;;;;22.00;92.70;;;;;;5133884;27;19939;-76
2020/12/24 09:30:22;;;;;;;;;;;22.00;92.80;;;;;;5133980;27;19955;-78
2020/12/24 09:32:58;;;;;;;;;;;22.00;93.00;;;;;;5133824;27;19912;-78
2020/12/24 09:35:27;;;;;;;;;;;22.00;93.00;;;;;;5135977;27;19915;-83
2020/12/24 09:37:54;;;;;;;;;;;22.10;92.90;;;;;;5111106;28;19930;-84
2020/12/24 09:40:22;;;;;;;;;;;22.00;92.90;;;;;;5128914;27;19956;-79
2020/12/24 09:42:49;;;;;;;;;;;21.90;92.80;;;;;;5127787;27;19912;-80
2020/12/24 09:45:15;;;;;;;;;;;21.90;93.00;;;;;;5131028;27;19920;-79
2020/12/24 09:47:46;;;;;;;;;;;22.00;93.00;;;;;;5130821;27;20057;-78
2020/12/24 09:50:13;;;;;;;;;;;21.90;93.00;;;;;;5129863;27;19911;-79
2020/12/24 09:52:40;;;;;;;;;;;21.90;93.20;;;;;;5130186;27;19923;-78
2020/12/24 09:55:07;;;;;;;;;;;21.90;93.30;;;;;;5130565;28;19919;-78
2020/12/24 09:57:33;;;;;;;;;;;21.90;93.40;;;;;;5128923;27;19935;-79
2020/12/24 10:00:00;;;;;;;;;;;21.90;93.40;;;;;;5130963;27;19911;-78
2020/12/24 10:02:27;;;;;;;;;;;21.90;93.40;;;;;;5130220;28;19937;-78
2020/12/24 10:04:54;;;;;;;;;;;21.90;93.50;;;;;;5122762;27;19920;-78
2020/12/24 10:07:27;;;;;;;;;;;22.00;93.60;;;;;;5109835;28;19919;-78
2020/12/24 10:09:54;;;;;;;;;;;21.90;93.50;;;;;;5092609;28;19908;-79
2020/12/24 10:12:21;;;;;;;;;;;21.90;93.50;;;;;;5109435;28;19914;-79
2020/12/24 10:14:48;;;;;;;;;;;21.80;93.60;;;;;;5109696;28;19919;-78
2020/12/24 10:17:17;;;;;;;;;;;21.90;93.60;;;;;;5109539;28;19924;-78
2020/12/24 10:19:44;;;;;;;;;;;21.90;93.70;;;;;;5110564;28;19957;-79
2020/12/24 10:22:11;;;;;;;;;;;21.90;93.40;;;;;;5108635;28;19911;-78
2020/12/24 10:24:38;;;;;;;;;;;22.00;93.50;;;;;;5110011;28;19973;-78
2020/12/24 10:27:05;;;;;;;;;;;21.90;93.50;;;;;;5108636;28;19964;-78
2020/12/24 10:29:32;;;;;;;;;;;21.90;93.70;;;;;;5109818;28;19915;-77
2020/12/24 10:31:59;;;;;;;;;;;21.80;93.90;;;;;;5110410;28;20530;-78
2020/12/24 10:34:25;;;;;;;;;;;21.80;94.10;;;;;;5109689;28;20334;-77
2020/12/24 10:36:52;;;;;;;;;;;21.80;94.30;;;;;;5109497;28;19911;-77
2020/12/24 10:39:19;;;;;;;;;;;21.80;94.50;;;;;;5109202;28;19915;-79
2020/12/24 10:41:49;;;;;;;;;;;21.70;94.50;;;;;;5109110;28;20537;-79
2020/12/24 10:44:16;;;;;;;;;;;21.70;94.60;;;;;;5109725;28;20289;-78
2020/12/24 10:46:43;;;;;;;;;;;21.60;94.70;;;;;;5110131;28;20376;-78
2020/12/24 10:49:10;;;;;;;;;;;21.70;94.60;;;;;;5089626;28;19916;-78
2020/12/24 10:51:37;;;;;;;;;;;21.70;94.70;;;;;;5091370;28;19909;-79
2020/12/24 10:54:04;;;;;;;;;;;21.70;94.70;;;;;;5095000;28;19961;-77
2020/12/24 10:56:31;;;;;;;;;;;21.70;94.80;;;;;;5113015;28;19916;-78
2020/12/24 10:58:58;;;;;;;;;;;21.80;94.80;;;;;;5110761;28;20366;-77
2020/12/24 11:01:25;;;;;;;;;;;21.80;94.80;;;;;;5113414;28;20270;-78
2020/12/24 11:03:51;;;;;;;;;;;21.80;94.80;;;;;;5113454;28;20010;-79
2020/12/24 11:06:19;;;;;;;;;;;21.80;94.80;;;;;;5115192;27;19927;-79
2020/12/24 11:08:47;;;;;;;;;;;21.80;95.10;;;;;;5128555;27;19922;-76
2020/12/24 11:11:13;;;;;;;;;;;21.80;95.10;;;;;;5107372;27;20048;-78
2020/12/24 11:13:44;;;;;;;;;;;21.80;95.20;;;;;;5113471;28;20339;-79
2020/12/24 11:16:13;;;;;;;;;;;21.80;95.20;;;;;;5117430;27;20408;-79
2020/12/24 11:18:39;;;;;;;;;;;21.80;95.20;;;;;;5129208;27;19931;-80
2020/12/24 11:21:07;;;;;;;;;;;21.90;95.00;;;;;;5133519;27;19930;-78
2020/12/24 11:23:34;;;;;;;;;;;21.90;95.00;;;;;;5127886;27;19976;-79
2020/12/24 11:26:00;;;;;;;;;;;21.90;94.80;;;;;;5115936;27;19998;-77
2020/12/24 11:28:27;;;;;;;;;;;21.90;94.70;;;;;;5122787;27;19916;-78
2020/12/24 11:30:54;;;;;;;;;;;21.90;94.60;;;;;;5120824;27;20277;-77
2020/12/24 11:33:20;;;;;;;;;;;21.80;94.80;;;;;;5123751;27;19939;-77
2020/12/24 11:35:47;;;;;;;;;;;21.90;94.80;;;;;;5112374;28;19965;-77
2020/12/24 11:38:14;;;;;;;;;;;21.90;94.50;;;;;;5120568;27;20473;-78
2020/12/24 11:40:40;;;;;;;;;;;21.90;94.50;;;;;;5128551;27;19927;-79
2020/12/24 11:43:07;;;;;;;;;;;21.90;94.30;;;;;;5113276;28;20393;-78
2020/12/24 11:45:34;;;;;;;;;;;21.80;94.40;;;;;;5126503;27;19971;-81
2020/12/24 11:48:01;;;;;;;;;;;21.90;94.70;;;;;;5115341;27;20006;-77
2020/12/24 11:50:27;;;;;;;;;;;21.80;94.40;;;;;;5111479;28;19922;-80
2020/12/24 11:52:54;;;;;;;;;;;21.90;94.40;;;;;;5112539;28;19976;-80
2020/12/24 11:55:21;;;;;;;;;;;21.90;94.30;;;;;;5123062;27;19912;-78
2020/12/24 11:57:48;;;;;;;;;;;21.90;94.30;;;;;;5124570;27;20022;-81
2020/12/24 12:00:14;;;;;;;;;;;21.80;94.40;;;;;;5127855;27;20447;-80
2020/12/24 12:02:41;;;;;;;;;;;21.90;94.50;;;;;;5126917;27;19916;-78
2020/12/24 12:05:08;;;;;;;;;;;21.80;94.70;;;;;;5113261;27;19915;-81
2020/12/24 12:07:34;;;;;;;;;;;21.80;94.70;;;;;;5111209;28;19912;-80
2020/12/24 12:10:01;;;;;;;;;;;21.80;94.70;;;;;;5086191;28;19908;-80
2020/12/24 12:12:28;;;;;;;;;;;21.80;94.60;;;;;;5095459;28;19911;-78
2020/12/24 12:14:54;;;;;;;;;;;21.80;94.70;;;;;;5111605;28;19911;-78
2020/12/24 12:17:24;;;;;;;;;;;21.70;94.80;;;;;;5110690;28;19926;-81
2020/12/24 12:19:50;;;;;;;;;;;21.70;95.00;;;;;;5111135;28;20457;-80
2020/12/24 12:22:17;;;;;;;;;;;21.80;95.10;;;;;;5110694;28;19908;-77
2020/12/24 12:24:44;;;;;;;;;;;21.70;95.20;;;;;;5111712;28;20273;-78
2020/12/24 12:27:10;;;;;;;;;;;21.70;95.10;;;;;;5092706;28;20327;-78
2020/12/24 12:29:37;;;;;;;;;;;21.70;95.20;;;;;;5111694;28;20282;-79
2020/12/24 12:32:04;;;;;;;;;;;21.70;95.30;;;;;;5111267;28;19912;-78
2020/12/24 12:34:30;;;;;;;;;;;21.60;95.30;;;;;;5108750;28;19938;-79
2020/12/24 12:36:57;;;;;;;;;;;21.70;95.30;;;;;;5110325;28;19919;-79
2020/12/24 12:39:24;;;;;;;;;;;21.70;95.30;;;;;;5090235;28;20011;-78
2020/12/24 12:41:50;;;;;;;;;;;21.70;95.20;;;;;;5110390;28;19911;-78
2020/12/24 12:44:17;;;;;;;;;;;21.70;95.00;;;;;;5110742;28;19915;-80
2020/12/24 12:46:47;;;;;;;;;;;21.70;95.00;;;;;;5096530;28;20609;-81
2020/12/24 12:49:16;;;;;;;;;;;21.70;94.90;;;;;;5111030;28;20259;-81
2020/12/24 12:51:43;;;;;;;;;;;21.60;94.80;;;;;;5092264;28;20572;-79
2020/12/24 12:54:09;;;;;;;;;;;21.70;94.80;;;;;;5108893;28;19926;-79
2020/12/24 12:56:38;;;;;;;;;;;21.60;94.80;;;;;;5111026;28;19923;-78
2020/12/24 12:59:05;;;;;;;;;;;21.60;94.70;;;;;;5110699;28;20031;-79
2020/12/24 13:01:31;;;;;;;;;;;21.60;94.80;;;;;;5110202;28;19911;-80
2020/12/24 13:03:58;;;;;;;;;;;21.60;94.60;;;;;;5110875;28;20389;-79
2020/12/24 13:06:25;;;;;;;;;;;21.60;94.70;;;;;;5129440;27;20006;-78
2020/12/24 13:08:52;;;;;;;;;;;21.60;94.70;;;;;;5120539;27;19908;-78
2020/12/24 13:11:21;;;;;;;;;;;21.60;94.60;;;;;;5110234;28;20213;-78
2020/12/24 13:13:48;;;;;;;;;;;21.60;94.70;;;;;;5126125;27;19916;-78
2020/12/24 13:16:14;;;;;;;;;;;21.60;94.80;;;;;;5114637;27;20359;-79
2020/12/24 13:18:41;;;;;;;;;;;21.50;95.00;;;;;;5111931;27;19920;-85
2020/12/24 13:21:08;;;;;;;;;;;21.50;95.10;;;;;;5111099;28;19998;-81
2020/12/24 13:23:34;;;;;;;;;;;21.50;95.20;;;;;;5110783;28;19933;-82
2020/12/24 13:26:01;;;;;;;;;;;21.50;95.30;;;;;;5124481;27;19917;-81
2020/12/24 13:28:28;;;;;;;;;;;21.50;95.40;;;;;;5111335;28;20308;-80
2020/12/24 13:30:54;;;;;;;;;;;21.50;95.40;;;;;;5121142;27;19950;-80
2020/12/24 13:33:21;;;;;;;;;;;21.50;95.40;;;;;;5131966;27;19911;-81
2020/12/24 13:35:48;;;;;;;;;;;21.60;95.40;;;;;;5114148;27;19969;-80
2020/12/24 13:38:14;;;;;;;;;;;21.60;95.40;;;;;;5111314;28;19920;-81
2020/12/24 13:40:41;;;;;;;;;;;21.60;95.30;;;;;;5118604;28;19912;-79
2020/12/24 13:43:09;;;;;;;;;;;21.60;95.40;;;;;;5132087;27;19911;-79
2020/12/24 13:45:35;;;;;;;;;;;21.50;95.30;;;;;;5117676;27;19923;-80
2020/12/24 13:48:02;;;;;;;;;;;21.60;95.40;;;;;;5111390;28;19914;-81
2020/12/24 13:50:31;;;;;;;;;;;21.50;95.40;;;;;;5115276;27;19915;-79
2020/12/24 13:52:58;;;;;;;;;;;21.50;95.40;;;;;;5131615;27;19915;-81
2020/12/24 13:55:25;;;;;;;;;;;21.50;95.70;;;;;;5119492;27;19998;-80
2020/12/24 13:57:52;;;;;;;;;;;21.50;95.40;;;;;;5111170;28;20067;-80
2020/12/24 14:00:18;;;;;;;;;;;21.40;95.40;;;;;;5111905;28;20007;-82
2020/12/24 14:02:45;;;;;;;;;;;21.40;95.50;;;;;;5111363;28;19911;-80
2020/12/24 14:05:12;;;;;;;;;;;21.40;95.40;;;;;;5120613;28;19919;-81
2020/12/24 14:07:38;;;;;;;;;;;21.40;95.40;;;;;;5116352;27;19911;-82
2020/12/24 14:10:05;;;;;;;;;;;21.40;95.30;;;;;;5114345;28;19976;-79
2020/12/24 14:12:31;;;;;;;;;;;21.40;95.30;;;;;;5129839;27;20324;-81
2020/12/24 14:14:58;;;;;;;;;;;21.40;95.40;;;;;;5123352;27;20293;-79
2020/12/24 14:17:25;;;;;;;;;;;21.30;95.20;;;;;;5110489;28;19916;-81
2020/12/24 14:19:52;;;;;;;;;;;21.30;95.20;;;;;;5110604;28;19922;-80
2020/12/24 14:22:18;;;;;;;;;;;21.40;95.20;;;;;;5097077;28;19937;-81